createdAt,value
2019-02-15T00:03:00.620Z,102036.41
2019-02-15T00:06:02.567Z,102033.13
2019-02-15T00:09:04.830Z,102034.80
2019-02-15T00:12:08.623Z,102037.98
2019-02-15T00:15:10.504Z,102036.94
2019-02-15T00:18:14.385Z,102039.48
2019-02-15T00:21:20.874Z,102045.56
2019-02-15T00:24:22.864Z,102032.63
2019-02-15T00:27:25.196Z,102036.64
2019-02-15T00:30:27.073Z,102030.63
2019-02-15T00:33:28.939Z,102033.67
2019-02-15T00:36:30.824Z,102035.14
2019-02-15T00:39:32.774Z,102026.32
2019-02-15T00:42:34.674Z,102019.38
2019-02-15T00:45:41.579Z,102016.11
2019-02-15T00:48:43.583Z,102020.41
2019-02-15T00:51:47.298Z,102022.95
2019-02-15T00:54:51.041Z,102022.72
2019-02-15T00:58:10.079Z,102015.17
2019-02-15T01:01:19.800Z,102023.92
2019-02-15T01:04:23.584Z,102008.76
2019-02-15T01:07:30.176Z,102013.00
2019-02-15T01:10:33.895Z,102007.52
2019-02-15T01:13:35.813Z,102014.91
2019-02-15T01:16:38.180Z,102005.09
2019-02-15T01:19:40.113Z,102005.52
2019-02-15T01:22:42.099Z,102006.16
2019-02-15T01:25:45.787Z,101998.24
2019-02-15T01:28:56.616Z,102000.78
2019-02-15T01:32:03.155Z,101990.70
2019-02-15T01:35:15.787Z,101992.30
2019-02-15T01:38:19.565Z,101989.88
2019-02-15T01:41:35.148Z,101989.72
2019-02-15T01:44:41.418Z,101985.28
2019-02-15T01:47:44.148Z,101977.73
2019-02-15T01:50:46.217Z,101979.19
2019-02-15T01:53:48.121Z,101988.06
2019-02-15T01:56:49.997Z,101981.12
2019-02-15T01:59:53.068Z,101984.89
2019-02-15T02:02:54.975Z,101984.89
2019-02-15T02:05:56.866Z,101981.72
2019-02-15T02:08:58.776Z,101983.95
2019-02-15T02:12:00.655Z,101980.67
2019-02-15T02:15:05.429Z,101980.08
2019-02-15T02:18:08.516Z,101982.92
2019-02-15T02:21:10.542Z,101975.16
2019-02-15T02:24:12.466Z,101979.25
2019-02-15T02:27:15.587Z,101983.09
2019-02-15T02:30:17.460Z,101976.64
2019-02-15T02:33:19.352Z,101977.76
2019-02-15T02:36:23.728Z,101968.97
2019-02-15T02:39:25.702Z,101980.06
2019-02-15T02:42:27.713Z,101978.19
2019-02-15T02:45:32.758Z,101972.48
2019-02-15T02:48:34.694Z,101975.03
2019-02-15T02:51:36.713Z,101980.36
2019-02-15T02:54:38.570Z,101981.42
2019-02-15T02:57:40.485Z,101982.78
2019-02-15T03:00:42.361Z,101982.25
2019-02-15T03:03:44.256Z,101970.79
2019-02-15T03:06:46.083Z,101971.06
2019-02-15T03:09:48.014Z,101968.09
2019-02-15T03:12:49.882Z,101970.19
2019-02-15T03:15:51.721Z,101977.05
2019-02-15T03:18:53.619Z,101977.82
2019-02-15T03:21:55.633Z,101982.17
2019-02-15T03:24:57.514Z,101980.90
2019-02-15T03:27:59.491Z,101980.20
2019-02-15T03:31:01.425Z,101975.54
2019-02-15T03:34:03.463Z,101984.69
2019-02-15T03:37:24.052Z,101976.46
2019-02-15T03:40:27.911Z,101978.07
2019-02-15T03:43:30.472Z,101976.64
2019-02-15T03:46:32.436Z,101980.77
2019-02-15T03:49:34.308Z,101988.55
2019-02-15T03:52:36.662Z,101981.72
2019-02-15T03:55:38.549Z,101978.06
2019-02-15T03:58:40.663Z,101968.99
2019-02-15T04:01:42.546Z,101964.11
2019-02-15T04:04:44.766Z,101957.23
2019-02-15T04:07:46.693Z,101952.11
2019-02-15T04:10:49.673Z,101953.05
2019-02-15T04:13:51.504Z,101961.30
2019-02-15T04:16:53.846Z,101964.08
2019-02-15T04:19:55.738Z,101951.87
2019-02-15T04:22:57.817Z,101950.61
2019-02-15T04:25:59.680Z,101951.42
2019-02-15T04:29:01.663Z,101946.08
2019-02-15T04:32:03.584Z,101938.67
2019-02-15T04:35:06.981Z,101937.55
2019-02-15T04:38:08.871Z,101933.20
2019-02-15T04:41:10.784Z,101930.94
2019-02-15T04:44:12.784Z,101934.52
2019-02-15T04:47:14.768Z,101928.42
2019-02-15T04:50:16.642Z,101922.67
2019-02-15T04:53:18.720Z,101915.90
2019-02-15T04:56:20.631Z,101910.55
2019-02-15T04:59:22.547Z,101908.20
2019-02-15T05:02:24.503Z,101917.91
2019-02-15T05:05:26.376Z,101917.02
2019-02-15T05:08:28.347Z,101909.91
2019-02-15T05:11:30.187Z,101912.27
2019-02-15T05:14:32.130Z,101909.56
2019-02-15T05:17:33.980Z,101910.25
2019-02-15T05:20:35.925Z,101904.87
2019-02-15T05:23:37.850Z,101907.21
2019-02-15T05:26:39.749Z,101908.25
2019-02-15T05:29:41.669Z,101902.77
2019-02-15T05:32:43.580Z,101906.45
2019-02-15T05:35:45.629Z,101913.53
2019-02-15T05:38:47.494Z,101917.87
2019-02-15T05:41:49.424Z,101922.91
2019-02-15T05:44:51.491Z,101925.92
2019-02-15T05:47:53.381Z,101933.70
2019-02-15T05:50:55.363Z,101932.48
2019-02-15T05:53:57.383Z,101934.33
2019-02-15T05:56:59.365Z,101931.61
2019-02-15T06:00:01.185Z,101938.47
2019-02-15T06:03:03.194Z,101936.52
2019-02-15T06:06:05.183Z,101936.57
2019-02-15T06:09:07.149Z,101937.88
2019-02-15T06:12:09.014Z,101949.41
2019-02-15T06:15:15.110Z,101947.06
2019-02-15T06:18:14.815Z,101948.84
2019-02-15T06:21:16.783Z,101954.27
2019-02-15T06:24:18.738Z,101951.19
2019-02-15T06:27:20.667Z,101955.36
2019-02-15T06:30:22.541Z,101969.31
2019-02-15T06:33:24.423Z,101966.63
2019-02-15T06:36:28.129Z,101968.81
2019-02-15T06:39:30.058Z,101967.14
2019-02-15T06:42:32.007Z,101973.00
2019-02-15T06:45:34.174Z,101968.47
2019-02-15T06:48:36.114Z,101971.75
2019-02-15T06:51:38.037Z,101966.64
2019-02-15T06:54:40.142Z,101967.21
2019-02-15T06:57:42.457Z,101957.16
2019-02-15T07:01:00.999Z,101957.98
2019-02-15T07:04:07.532Z,101960.66
2019-02-15T07:07:09.421Z,101955.29
2019-02-15T07:10:11.325Z,101956.73
2019-02-15T07:13:14.286Z,101963.03
2019-02-15T07:16:16.299Z,101953.05
2019-02-15T07:19:18.263Z,101948.26
2019-02-15T07:22:20.214Z,101956.42
2019-02-15T07:25:22.274Z,101954.94
2019-02-15T07:28:24.262Z,101957.80
2019-02-15T07:31:26.154Z,101956.86
2019-02-15T07:34:28.186Z,101961.08
2019-02-15T07:37:30.078Z,101967.75
2019-02-15T07:40:32.913Z,101963.80
2019-02-15T07:43:34.936Z,101956.11
2019-02-15T07:46:36.807Z,101962.01
2019-02-15T07:49:38.793Z,101963.09
2019-02-15T07:52:40.726Z,101956.49
2019-02-15T07:55:42.894Z,101957.65
2019-02-15T07:58:44.793Z,101956.16
2019-02-15T08:01:46.778Z,101954.91
2019-02-15T08:04:48.670Z,101944.50
2019-02-15T08:07:50.613Z,101954.31
2019-02-15T08:10:52.641Z,101946.05
2019-02-15T08:13:54.508Z,101941.55
2019-02-15T08:16:56.540Z,101944.89
2019-02-15T08:19:58.474Z,101938.94
2019-02-15T08:23:00.492Z,101940.97
2019-02-15T08:26:02.480Z,101944.23
2019-02-15T08:29:04.423Z,101933.98
2019-02-15T08:32:06.435Z,101936.59
2019-02-15T08:35:09.539Z,101936.59
2019-02-15T08:38:12.709Z,101936.70
2019-02-15T08:41:14.606Z,101940.78
2019-02-15T08:44:16.592Z,101940.80
2019-02-15T08:47:20.923Z,101940.27
2019-02-15T08:50:23.485Z,101944.00
2019-02-15T08:53:25.458Z,101941.47
2019-02-15T08:56:30.748Z,101941.47
2019-02-15T08:59:32.706Z,101943.17
2019-02-15T09:02:34.643Z,101945.27
2019-02-15T09:05:36.575Z,101952.95
2019-02-15T09:08:38.513Z,101964.08
2019-02-15T09:11:40.417Z,101963.59
2019-02-15T09:14:42.372Z,101962.67
2019-02-15T09:17:44.281Z,101960.58
2019-02-15T09:20:46.232Z,101970.38
2019-02-15T09:23:48.134Z,101962.30
2019-02-15T09:26:50.102Z,101959.84
2019-02-15T09:29:51.996Z,101962.63
2019-02-15T09:32:53.900Z,101964.86
2019-02-15T09:35:55.793Z,101964.20
2019-02-15T09:38:57.774Z,101970.91
2019-02-15T09:41:59.739Z,101970.75
2019-02-15T09:45:01.712Z,101969.59
2019-02-15T09:48:03.571Z,101973.34
2019-02-15T09:51:05.562Z,101973.58
2019-02-15T09:54:08.670Z,101974.41
2019-02-15T09:57:10.836Z,101970.11
2019-02-15T10:00:12.912Z,101967.03
2019-02-15T10:03:14.876Z,101978.31
2019-02-15T10:06:16.788Z,101969.16
2019-02-15T10:09:19.904Z,101959.13
2019-02-15T10:12:21.851Z,101956.69
2019-02-15T10:15:23.815Z,101956.17
2019-02-15T10:18:25.726Z,101952.55
2019-02-15T10:21:27.938Z,101950.30
2019-02-15T10:24:29.872Z,101945.17
2019-02-15T10:27:31.989Z,101942.41
2019-02-15T10:30:33.863Z,101947.89
2019-02-15T10:33:36.321Z,101946.32
2019-02-15T10:36:38.367Z,101942.73
2019-02-15T10:39:40.538Z,101943.64
2019-02-15T10:42:42.528Z,101941.11
2019-02-15T10:45:44.446Z,101936.97
2019-02-15T10:48:46.391Z,101938.03
2019-02-15T10:51:48.316Z,101931.98
2019-02-15T10:54:50.198Z,101930.26
2019-02-15T10:57:52.430Z,101922.28
2019-02-15T11:00:54.429Z,101927.14
2019-02-15T11:03:56.514Z,101928.84
2019-02-15T11:06:58.470Z,101925.56
2019-02-15T11:10:00.470Z,101913.60
2019-02-15T11:13:03.534Z,101921.17
2019-02-15T11:16:05.484Z,101917.77
2019-02-15T11:19:07.405Z,101919.80
2019-02-15T11:22:09.374Z,101927.29
2019-02-15T11:25:11.322Z,101924.05
2019-02-15T11:28:13.291Z,101916.72
2019-02-15T11:31:16.947Z,101912.38
2019-02-15T11:34:19.159Z,101911.28
2019-02-15T11:37:21.117Z,101901.05
2019-02-15T11:40:23.164Z,101896.60
2019-02-15T11:43:25.660Z,101900.19
2019-02-15T11:46:27.617Z,101896.68
2019-02-15T11:49:29.641Z,101890.01
2019-02-15T11:52:31.679Z,101893.09
2019-02-15T11:55:33.575Z,101881.80
2019-02-15T11:58:35.885Z,101878.09
2019-02-15T12:01:37.771Z,101879.72
2019-02-15T12:04:39.676Z,101881.89
2019-02-15T12:07:41.644Z,101879.67
2019-02-15T12:10:43.602Z,101870.59
2019-02-15T12:13:45.461Z,101870.08
2019-02-15T12:16:47.589Z,101860.37
2019-02-15T12:19:49.629Z,101858.13
2019-02-15T12:22:51.617Z,101859.59
2019-02-15T12:25:53.483Z,101852.41
2019-02-15T12:28:55.438Z,101849.61
2019-02-15T12:31:57.403Z,101854.55
2019-02-15T12:34:59.403Z,101849.61
2019-02-15T12:38:01.308Z,101852.92
2019-02-15T12:41:03.311Z,101850.20
2019-02-15T12:44:05.237Z,101844.20
2019-02-15T12:47:14.838Z,101835.31
2019-02-15T12:50:14.929Z,101821.75
2019-02-15T12:53:16.892Z,101818.75
2019-02-15T12:56:18.915Z,101822.02
2019-02-15T12:59:20.944Z,101823.99
2019-02-15T13:02:22.896Z,101818.71
2019-02-15T13:05:24.766Z,101815.36
2019-02-15T13:08:26.780Z,101817.02
2019-02-15T13:11:28.721Z,101813.43
2019-02-15T13:14:30.669Z,101821.13
2019-02-15T13:17:32.661Z,101814.22
2019-02-15T13:20:34.663Z,101812.84
2019-02-15T13:23:36.569Z,101810.01
2019-02-15T13:26:38.799Z,101802.66
2019-02-15T13:29:40.963Z,101797.17
2019-02-15T13:32:43.066Z,101796.41
2019-02-15T13:35:44.934Z,101796.62
2019-02-15T13:38:47.004Z,101795.52
2019-02-15T13:41:48.935Z,101789.98
2019-02-15T13:44:50.881Z,101782.25
2019-02-15T13:47:52.893Z,101788.53
2019-02-15T13:50:54.991Z,101785.44
2019-02-15T13:53:56.893Z,101787.91
2019-02-15T13:56:58.987Z,101783.73
2019-02-15T14:00:01.058Z,101787.05
2019-02-15T14:03:03.391Z,101789.50
2019-02-15T14:06:05.284Z,101792.85
2019-02-15T14:09:08.354Z,101795.38
2019-02-15T14:12:10.308Z,101788.98
2019-02-15T14:15:12.658Z,101789.23
2019-02-15T14:18:15.714Z,101783.43
2019-02-15T14:21:17.696Z,101786.47
2019-02-15T14:24:19.620Z,101773.97
2019-02-15T14:27:21.671Z,101770.34
2019-02-15T14:30:23.730Z,101770.34
2019-02-15T14:33:25.878Z,101770.06
2019-02-15T14:36:27.953Z,101765.34
2019-02-15T14:39:29.950Z,101762.86
2019-02-15T14:42:31.854Z,101757.61
2019-02-15T14:45:33.751Z,101748.67
2019-02-15T14:48:35.606Z,101747.12
2019-02-15T14:51:37.767Z,101743.29
2019-02-15T14:54:40.237Z,101741.08
2019-02-15T14:57:42.463Z,101739.70
2019-02-15T15:00:44.709Z,101738.73
2019-02-15T15:03:47.145Z,101734.28
2019-02-15T15:06:49.065Z,101735.63
2019-02-15T15:09:51.474Z,101733.30
2019-02-15T15:12:54.833Z,101728.85
2019-02-15T15:15:56.757Z,101731.02
2019-02-15T15:18:58.665Z,101726.26
2019-02-15T15:22:03.511Z,101726.50
2019-02-15T15:25:08.461Z,101725.32
2019-02-15T15:28:10.570Z,101728.86
2019-02-15T15:31:12.819Z,101722.08
2019-02-15T15:34:16.195Z,101715.25
2019-02-15T15:37:18.082Z,101714.81
2019-02-15T15:40:19.995Z,101709.36
2019-02-15T15:43:22.059Z,101704.41
2019-02-15T15:46:24.109Z,101707.47
2019-02-15T15:49:27.963Z,101704.24
2019-02-15T15:52:30.081Z,101703.92
2019-02-15T15:55:32.027Z,101702.52
2019-02-15T15:58:35.994Z,101706.47
2019-02-15T16:01:38.097Z,101707.84
2019-02-15T16:04:41.886Z,101703.37
2019-02-15T16:07:44.167Z,101702.75
2019-02-15T16:10:46.513Z,101699.96
2019-02-15T16:13:48.954Z,101696.03
2019-02-15T16:16:51.043Z,101706.21
2019-02-15T16:19:53.090Z,101708.71
2019-02-15T16:22:55.201Z,101709.32
2019-02-15T16:25:57.240Z,101709.67
2019-02-15T16:28:59.182Z,101713.62
2019-02-15T16:32:02.859Z,101713.69
2019-02-15T16:35:05.692Z,101715.69
2019-02-15T16:38:08.024Z,101711.40
2019-02-15T16:41:10.359Z,101714.96
2019-02-15T16:44:12.746Z,101719.05
2019-02-15T16:47:14.881Z,101718.62
2019-02-15T16:50:17.232Z,101718.23
2019-02-15T16:53:21.112Z,101716.20
2019-02-15T16:56:23.197Z,101719.56
2019-02-15T16:59:25.128Z,101721.80
2019-02-15T17:02:27.158Z,101727.45
2019-02-15T17:05:29.073Z,101729.59
2019-02-15T17:08:31.094Z,101725.03
2019-02-15T17:11:34.217Z,101729.07
2019-02-15T17:14:36.152Z,101727.25
2019-02-15T17:17:38.138Z,101725.48
2019-02-15T17:20:42.195Z,101732.22
2019-02-15T17:23:45.325Z,101731.23
2019-02-15T17:26:47.313Z,101734.11
2019-02-15T17:29:51.114Z,101737.09
2019-02-15T17:32:53.495Z,101734.58
2019-02-15T17:35:55.525Z,101742.03
2019-02-15T17:38:59.097Z,101742.19
2019-02-15T17:42:01.079Z,101738.58
2019-02-15T17:45:05.816Z,101741.40
2019-02-15T17:48:07.822Z,101742.43
2019-02-15T17:51:10.008Z,101739.02
2019-02-15T17:54:13.118Z,101740.38
2019-02-15T17:57:16.443Z,101741.57
2019-02-15T18:00:20.520Z,101738.45
2019-02-15T18:03:23.155Z,101743.55
2019-02-15T18:06:25.552Z,101734.86
2019-02-15T18:09:29.354Z,101737.70
2019-02-15T18:12:31.935Z,101738.06
2019-02-15T18:15:34.288Z,101735.78
2019-02-15T18:18:37.764Z,101741.16
2019-02-15T18:21:41.535Z,101737.95
2019-02-15T18:24:44.125Z,101747.48
2019-02-15T18:27:47.494Z,101748.39
2019-02-15T18:30:51.254Z,101747.08
2019-02-15T18:33:53.652Z,101752.69
2019-02-15T18:36:55.645Z,101745.66
2019-02-15T18:39:57.563Z,101744.94
2019-02-15T18:42:59.541Z,101740.00
2019-02-15T18:46:01.805Z,101740.44
2019-02-15T18:49:04.109Z,101742.24
2019-02-15T18:52:06.167Z,101740.25
2019-02-15T18:55:11.980Z,101734.48
2019-02-15T18:58:15.619Z,101739.20
2019-02-15T19:01:20.842Z,101740.14
2019-02-15T19:04:23.116Z,101742.45
2019-02-15T19:07:25.999Z,101748.89
2019-02-15T19:10:30.718Z,101747.59
2019-02-15T19:13:32.957Z,101750.14
2019-02-15T19:16:34.961Z,101754.93
2019-02-15T19:19:36.918Z,101744.58
2019-02-15T19:22:39.191Z,101745.43
2019-02-15T19:25:42.935Z,101740.94
2019-02-15T19:28:44.918Z,101740.30
2019-02-15T19:31:49.830Z,101738.95
2019-02-15T19:34:51.755Z,101733.51
2019-02-15T19:37:59.679Z,101740.84
2019-02-15T19:41:04.177Z,101732.95
2019-02-15T19:44:08.972Z,101733.55
2019-02-15T19:47:10.930Z,101735.42
2019-02-15T19:50:16.673Z,101735.42
2019-02-15T19:53:20.138Z,101730.91
2019-02-15T19:56:23.554Z,101736.02
2019-02-15T19:59:30.641Z,101736.73
2019-02-15T20:02:35.145Z,101735.02
2019-02-15T20:05:37.560Z,101737.73
2019-02-15T20:08:40.951Z,101739.80
2019-02-15T20:11:46.560Z,101737.67
2019-02-15T20:14:50.292Z,101736.17
2019-02-15T20:17:53.064Z,101728.72
2019-02-15T20:20:56.262Z,101737.54
2019-02-15T20:24:02.011Z,101734.72
2019-02-15T20:27:03.930Z,101736.95
2019-02-15T20:30:12.292Z,101729.63
2019-02-15T20:33:14.273Z,101731.53
2019-02-15T20:36:18.615Z,101729.38
2019-02-15T20:39:21.599Z,101732.95
2019-02-15T20:42:24.435Z,101738.94
2019-02-15T20:45:26.590Z,101736.55
2019-02-15T20:48:28.717Z,101737.50
2019-02-15T20:51:30.642Z,101729.63
2019-02-15T20:54:33.727Z,101724.28
2019-02-15T20:57:35.690Z,101725.53
2019-02-15T21:00:37.960Z,101717.58
2019-02-15T21:03:40.309Z,101717.36
2019-02-15T21:06:44.264Z,101714.32
2019-02-15T21:09:46.840Z,101713.56
2019-02-15T21:12:48.692Z,101714.38
2019-02-15T21:15:52.570Z,101710.48
2019-02-15T21:18:56.403Z,101701.95
2019-02-15T21:22:02.460Z,101707.39
2019-02-15T21:25:08.061Z,101701.06
2019-02-15T21:28:12.998Z,101699.16
2019-02-15T21:31:15.226Z,101697.89
2019-02-15T21:34:17.200Z,101699.66
2019-02-15T21:37:19.510Z,101706.85
2019-02-15T21:40:23.245Z,101709.48
2019-02-15T21:43:25.201Z,101709.86
2019-02-15T21:46:27.172Z,101703.80
2019-02-15T21:49:29.204Z,101706.81
2019-02-15T21:52:31.192Z,101700.19
2019-02-15T21:55:33.458Z,101699.05
2019-02-15T21:58:35.396Z,101697.99
2019-02-15T22:01:37.340Z,101701.25
2019-02-15T22:04:39.317Z,101697.99
2019-02-15T22:07:41.242Z,101700.81
2019-02-15T22:10:43.791Z,101695.53
2019-02-15T22:13:46.969Z,101703.77
2019-02-15T22:16:48.863Z,101706.27
2019-02-15T22:19:50.774Z,101702.25
2019-02-15T22:22:52.713Z,101698.97
2019-02-15T22:25:54.620Z,101689.20
2019-02-15T22:28:56.683Z,101691.92
2019-02-15T22:31:58.559Z,101697.36
2019-02-15T22:35:00.804Z,101693.28
2019-02-15T22:38:03.658Z,101700.08
2019-02-15T22:41:14.664Z,101697.17
2019-02-15T22:44:16.846Z,101692.88
2019-02-15T22:47:19.894Z,101683.09
2019-02-15T22:50:21.892Z,101678.30
2019-02-15T22:53:23.803Z,101676.30
2019-02-15T22:56:27.611Z,101676.70
2019-02-15T22:59:29.531Z,101677.66
2019-02-15T23:02:31.475Z,101677.66
2019-02-15T23:05:33.591Z,101683.50
2019-02-15T23:08:35.421Z,101680.50
2019-02-15T23:11:37.414Z,101689.20
2019-02-15T23:14:39.299Z,101689.61
2019-02-15T23:17:41.236Z,101687.81
2019-02-15T23:20:45.148Z,101689.44
2019-02-15T23:23:46.951Z,101683.70
2019-02-15T23:26:48.830Z,101694.84
2019-02-15T23:29:50.907Z,101686.42
2019-02-15T23:32:52.854Z,101683.56
2019-02-15T23:35:54.854Z,101687.52
2019-02-15T23:38:56.735Z,101690.97
2019-02-15T23:41:58.698Z,101692.95
2019-02-15T23:45:00.658Z,101694.26
2019-02-15T23:48:02.537Z,101699.82
2019-02-15T23:51:04.506Z,101703.63
2019-02-15T23:54:06.399Z,101704.27
2019-02-15T23:57:09.349Z,101703.67
